sensor_id;sensor_type;location;lat;lon;timestamp;pressure;altitude;pressure_sealevel;temperature;humidity
59103;BME280;43999;51.660;5.616;2023-04-20T00:00:37;102068.59;;;7.32;43.02
59103;BME280;43999;51.660;5.616;2023-04-20T00:03:04;102053.91;;;7.28;42.57
59103;BME280;43999;51.660;5.616;2023-04-20T00:05:33;102054.00;;;7.23;42.87
59103;BME280;43999;51.660;5.616;2023-04-20T00:08:01;102048.78;;;7.23;42.97
59103;BME280;43999;51.660;5.616;2023-04-20T00:10:28;102044.56;;;7.17;43.56
59103;BME280;43999;51.660;5.616;2023-04-20T00:13:02;102045.44;;;7.16;42.40
59103;BME280;43999;51.660;5.616;2023-04-20T00:15:30;102035.09;;;7.12;42.74
59103;BME280;43999;51.660;5.616;2023-04-20T00:17:57;102030.00;;;7.07;42.71
59103;BME280;43999;51.660;5.616;2023-04-20T00:20:25;102036.97;;;7.07;43.62
59103;BME280;43999;51.660;5.616;2023-04-20T00:22:52;102028.31;;;7.03;43.82
59103;BME280;43999;51.660;5.616;2023-04-20T00:25:20;102017.97;;;7.00;43.32
59103;BME280;43999;51.660;5.616;2023-04-20T00:27:47;102019.72;;;6.99;43.93
59103;BME280;43999;51.660;5.616;2023-04-20T00:30:15;102012.81;;;6.97;43.93
59103;BME280;43999;51.660;5.616;2023-04-20T00:32:42;102012.03;;;6.93;44.90
59103;BME280;43999;51.660;5.616;2023-04-20T00:35:10;102005.09;;;6.92;43.84
59103;BME280;43999;51.660;5.616;2023-04-20T00:37:37;102004.38;;;6.84;45.14
59103;BME280;43999;51.660;5.616;2023-04-20T00:40:06;101988.03;;;6.77;44.23
59103;BME280;43999;51.660;5.616;2023-04-20T00:42:41;101994.88;;;6.81;44.38
59103;BME280;43999;51.660;5.616;2023-04-20T00:45:09;101990.56;;;6.80;44.54
59103;BME280;43999;51.660;5.616;2023-04-20T00:47:39;101993.19;;;6.80;44.55
59103;BME280;43999;51.660;5.616;2023-04-20T00:50:07;101986.22;;;6.81;45.52
59103;BME280;43999;51.660;5.616;2023-04-20T00:52:38;101980.25;;;6.76;45.78
59103;BME280;43999;51.660;5.616;2023-04-20T00:55:08;101978.53;;;6.73;45.72
59103;BME280;43999;51.660;5.616;2023-04-20T00:57:39;101964.81;;;6.65;46.34
59103;BME280;43999;51.660;5.616;2023-04-20T01:00:08;101968.25;;;6.67;46.25
59103;BME280;43999;51.660;5.616;2023-04-20T01:02:36;101972.63;;;6.65;47.84
59103;BME280;43999;51.660;5.616;2023-04-20T01:05:08;101962.31;;;6.60;47.76
59103;BME280;43999;51.660;5.616;2023-04-20T01:07:36;101959.78;;;6.56;47.23
59103;BME280;43999;51.660;5.616;2023-04-20T01:10:06;101942.53;;;6.50;47.78
59103;BME280;43999;51.660;5.616;2023-04-20T01:12:35;101939.16;;;6.45;48.63
59103;BME280;43999;51.660;5.616;2023-04-20T01:15:04;101930.53;;;6.43;48.40
59103;BME280;43999;51.660;5.616;2023-04-20T01:17:32;101936.69;;;6.39;48.44
59103;BME280;43999;51.660;5.616;2023-04-20T01:20:01;101930.69;;;6.35;48.75
59103;BME280;43999;51.660;5.616;2023-04-20T01:22:29;101935.97;;;6.31;48.98
59103;BME280;43999;51.660;5.616;2023-04-20T01:24:59;101915.28;;;6.23;49.55
59103;BME280;43999;51.660;5.616;2023-04-20T01:27:27;101919.59;;;6.24;49.83
59103;BME280;43999;51.660;5.616;2023-04-20T01:29:55;101906.69;;;6.18;49.78
59103;BME280;43999;51.660;5.616;2023-04-20T01:32:25;101917.09;;;6.18;49.58
59103;BME280;43999;51.660;5.616;2023-04-20T01:34:52;101911.06;;;6.16;49.69
59103;BME280;43999;51.660;5.616;2023-04-20T01:37:20;101901.63;;;6.10;50.56
59103;BME280;43999;51.660;5.616;2023-04-20T01:39:48;101891.28;;;6.05;50.71
59103;BME280;43999;51.660;5.616;2023-04-20T01:42:15;101888.72;;;6.04;50.72
59103;BME280;43999;51.660;5.616;2023-04-20T01:44:42;101883.56;;;6.01;50.73
59103;BME280;43999;51.660;5.616;2023-04-20T01:47:10;101883.66;;;5.95;51.44
59103;BME280;43999;51.660;5.616;2023-04-20T01:49:39;101882.78;;;5.94;51.88
59103;BME280;43999;51.660;5.616;2023-04-20T01:52:07;101878.53;;;5.90;52.16
59103;BME280;43999;51.660;5.616;2023-04-20T01:54:36;101876.88;;;5.86;52.11
59103;BME280;43999;51.660;5.616;2023-04-20T01:57:03;101868.31;;;5.79;52.44
59103;BME280;43999;51.660;5.616;2023-04-20T01:59:30;101871.84;;;5.77;53.56
59103;BME280;43999;51.660;5.616;2023-04-20T02:02:00;101858.13;;;5.67;53.55
59103;BME280;43999;51.660;5.616;2023-04-20T02:04:31;101859.00;;;5.67;53.31
59103;BME280;43999;51.660;5.616;2023-04-20T02:06:59;101864.25;;;5.64;54.31
59103;BME280;43999;51.660;5.616;2023-04-20T02:09:26;101859.13;;;5.60;54.42
59103;BME280;43999;51.660;5.616;2023-04-20T02:11:58;101857.41;;;5.57;55.11
59103;BME280;43999;51.660;5.616;2023-04-20T02:14:26;101853.09;;;5.56;55.65
59103;BME280;43999;51.660;5.616;2023-04-20T02:16:53;101851.44;;;5.53;56.13
59103;BME280;43999;51.660;5.616;2023-04-20T02:19:21;101854.88;;;5.54;56.44
59103;BME280;43999;51.660;5.616;2023-04-20T02:21:49;101851.44;;;5.53;57.14
59103;BME280;43999;51.660;5.616;2023-04-20T02:24:16;101852.28;;;5.54;57.10
59103;BME280;43999;51.660;5.616;2023-04-20T02:26:43;101847.94;;;5.53;58.61
59103;BME280;43999;51.660;5.616;2023-04-20T02:29:11;101843.66;;;5.52;58.69
59103;BME280;43999;51.660;5.616;2023-04-20T02:31:38;101848.84;;;5.52;59.05
59103;BME280;43999;51.660;5.616;2023-04-20T02:34:06;101843.72;;;5.47;60.27
59103;BME280;43999;51.660;5.616;2023-04-20T02:36:35;101844.53;;;5.51;61.58
59103;BME280;43999;51.660;5.616;2023-04-20T02:39:03;101837.59;;;5.50;62.02
59103;BME280;43999;51.660;5.616;2023-04-20T02:41:33;101840.16;;;5.51;62.59
59103;BME280;43999;51.660;5.616;2023-04-20T02:44:02;101832.41;;;5.50;63.73
59103;BME280;43999;51.660;5.616;2023-04-20T02:46:32;101835.84;;;5.52;64.43
59103;BME280;43999;51.660;5.616;2023-04-20T02:48:59;101828.06;;;5.52;65.02
59103;BME280;43999;51.660;5.616;2023-04-20T02:51:28;101824.56;;;5.51;64.57
59103;BME280;43999;51.660;5.616;2023-04-20T02:53:55;101819.41;;;5.50;64.89
59103;BME280;43999;51.660;5.616;2023-04-20T02:56:27;101810.84;;;5.45;65.33
59103;BME280;43999;51.660;5.616;2023-04-20T02:58:59;101820.31;;;5.49;67.06
59103;BME280;43999;51.660;5.616;2023-04-20T03:01:31;101815.94;;;5.49;67.13
59103;BME280;43999;51.660;5.616;2023-04-20T03:04:08;101817.66;;;5.52;68.24
59103;BME280;43999;51.660;5.616;2023-04-20T03:06:42;101808.03;;;5.57;68.85
59103;BME280;43999;51.660;5.616;2023-04-20T03:09:14;101805.41;;;5.59;68.30
59103;BME280;43999;51.660;5.616;2023-04-20T03:12:01;101798.53;;;5.54;68.78
59103;BME280;43999;51.660;5.616;2023-04-20T03:14:46;101796.69;;;5.61;69.87
59103;BME280;43999;51.660;5.616;2023-04-20T03:17:16;101804.34;;;5.69;70.36
59103;BME280;43999;51.660;5.616;2023-04-20T03:19:44;101799.13;;;5.70;69.84
59103;BME280;43999;51.660;5.616;2023-04-20T03:22:13;101797.31;;;5.74;71.00
59103;BME280;43999;51.660;5.616;2023-04-20T03:24:41;101801.50;;;5.83;71.91
59103;BME280;43999;51.660;5.616;2023-04-20T03:27:17;101805.69;;;5.90;70.98
59103;BME280;43999;51.660;5.616;2023-04-20T03:30:00;101785.72;;;5.92;71.86
59103;BME280;43999;51.660;5.616;2023-04-20T03:32:29;101783.91;;;5.96;71.59
59103;BME280;43999;51.660;5.616;2023-04-20T03:34:59;101783.84;;;6.00;72.04
59103;BME280;43999;51.660;5.616;2023-04-20T03:37:26;101775.94;;;6.06;72.54
59103;BME280;43999;51.660;5.616;2023-04-20T03:39:53;101775.03;;;6.09;72.86
59103;BME280;43999;51.660;5.616;2023-04-20T03:42:20;101773.22;;;6.11;73.63
59103;BME280;43999;51.660;5.616;2023-04-20T03:44:48;101792.94;;;6.24;73.90
59103;BME280;43999;51.660;5.616;2023-04-20T03:47:16;101773.75;;;6.27;73.94
59103;BME280;43999;51.660;5.616;2023-04-20T03:49:46;101768.47;;;6.32;75.10
59103;BME280;43999;51.660;5.616;2023-04-20T03:52:13;101770.94;;;6.38;74.69
59103;BME280;43999;51.660;5.616;2023-04-20T03:54:40;101768.16;;;6.45;75.62
59103;BME280;43999;51.660;5.616;2023-04-20T03:57:09;101756.78;;;6.51;75.31
59103;BME280;43999;51.660;5.616;2023-04-20T03:59:38;101765.97;;;6.66;74.87
59103;BME280;43999;51.660;5.616;2023-04-20T04:02:06;101757.09;;;6.75;75.41
59103;BME280;43999;51.660;5.616;2023-04-20T04:04:36;101756.03;;;6.84;76.19
59103;BME280;43999;51.660;5.616;2023-04-20T04:07:04;101763.50;;;6.99;76.45
59103;BME280;43999;51.660;5.616;2023-04-20T04:09:32;101754.69;;;7.03;74.29
59103;BME280;43999;51.660;5.616;2023-04-20T04:12:00;101755.44;;;7.08;75.64
59103;BME280;43999;51.660;5.616;2023-04-20T04:14:32;101749.22;;;7.14;74.39
59103;BME280;43999;51.660;5.616;2023-04-20T04:17:01;101739.69;;;7.13;75.28
59103;BME280;43999;51.660;5.616;2023-04-20T04:19:30;101739.63;;;7.16;75.18
59103;BME280;43999;51.660;5.616;2023-04-20T04:21:58;101735.13;;;7.21;74.68
59103;BME280;43999;51.660;5.616;2023-04-20T04:24:25;101726.47;;;7.21;75.04
59103;BME280;43999;51.660;5.616;2023-04-20T04:27:05;101727.34;;;7.20;75.31
59103;BME280;43999;51.660;5.616;2023-04-20T04:29:39;101727.34;;;7.20;74.93
59103;BME280;43999;51.660;5.616;2023-04-20T04:32:11;101722.91;;;7.23;75.53
59103;BME280;43999;51.660;5.616;2023-04-20T04:34:40;101719.34;;;7.27;75.82
59103;BME280;43999;51.660;5.616;2023-04-20T04:37:12;101708.88;;;7.29;75.25
59103;BME280;43999;51.660;5.616;2023-04-20T04:39:49;101712.38;;;7.28;75.41
59103;BME280;43999;51.660;5.616;2023-04-20T04:42:26;101715.84;;;7.28;75.41
59103;BME280;43999;51.660;5.616;2023-04-20T04:45:01;101706.34;;;7.26;75.87
59103;BME280;43999;51.660;5.616;2023-04-20T04:47:35;101709.03;;;7.23;76.02
59103;BME280;43999;51.660;5.616;2023-04-20T04:50:07;101710.75;;;7.24;76.17
59103;BME280;43999;51.660;5.616;2023-04-20T04:52:44;101698.44;;;7.29;75.80
59103;BME280;43999;51.660;5.616;2023-04-20T04:55:12;101707.16;;;7.28;75.24
59103;BME280;43999;51.660;5.616;2023-04-20T04:57:42;101703.69;;;7.27;75.95
59103;BME280;43999;51.660;5.616;2023-04-20T05:00:10;101722.72;;;7.31;75.81
59103;BME280;43999;51.660;5.616;2023-04-20T05:02:38;101710.56;;;7.31;75.68
59103;BME280;43999;51.660;5.616;2023-04-20T05:05:08;101705.34;;;7.31;76.75
59103;BME280;43999;51.660;5.616;2023-04-20T05:07:37;101705.34;;;7.31;77.31
59103;BME280;43999;51.660;5.616;2023-04-20T05:10:13;101707.06;;;7.31;77.46
59103;BME280;43999;51.660;5.616;2023-04-20T05:12:42;101698.44;;;7.29;77.17
59103;BME280;43999;51.660;5.616;2023-04-20T05:15:11;101696.72;;;7.28;77.76
59103;BME280;43999;51.660;5.616;2023-04-20T05:17:39;101698.38;;;7.32;77.32
59103;BME280;43999;51.660;5.616;2023-04-20T05:20:08;101692.44;;;7.27;76.80
59103;BME280;43999;51.660;5.616;2023-04-20T05:22:37;101697.53;;;7.31;78.43
59103;BME280;43999;51.660;5.616;2023-04-20T05:25:20;101707.06;;;7.31;77.55
59103;BME280;43999;51.660;5.616;2023-04-20T05:27:48;101707.94;;;7.31;78.52
59103;BME280;43999;51.660;5.616;2023-04-20T05:30:16;101706.19;;;7.32;77.29
59103;BME280;43999;51.660;5.616;2023-04-20T05:32:49;101705.38;;;7.30;78.75
59103;BME280;43999;51.660;5.616;2023-04-20T05:35:28;101689.63;;;7.34;79.14
59103;BME280;43999;51.660;5.616;2023-04-20T05:37:58;101689.50;;;7.39;79.31
59103;BME280;43999;51.660;5.616;2023-04-20T05:40:28;101701.66;;;7.39;79.72
59103;BME280;43999;51.660;5.616;2023-04-20T05:42:56;101675.53;;;7.40;78.54
59103;BME280;43999;51.660;5.616;2023-04-20T05:45:26;101678.94;;;7.44;79.58
59103;BME280;43999;51.660;5.616;2023-04-20T05:47:57;101681.59;;;7.42;79.31
59103;BME280;43999;51.660;5.616;2023-04-20T05:50:26;101684.06;;;7.47;78.93
59103;BME280;43999;51.660;5.616;2023-04-20T05:52:57;101688.25;;;7.52;80.28
59103;BME280;43999;51.660;5.616;2023-04-20T05:55:25;101684.03;;;7.48;80.34
59103;BME280;43999;51.660;5.616;2023-04-20T05:57:55;101680.50;;;7.49;79.96
59103;BME280;43999;51.660;5.616;2023-04-20T06:00:24;101676.78;;;7.58;79.31
59103;BME280;43999;51.660;5.616;2023-04-20T06:02:53;101673.03;;;7.68;79.35
59103;BME280;43999;51.660;5.616;2023-04-20T06:05:22;101674.41;;;7.80;79.45
59103;BME280;43999;51.660;5.616;2023-04-20T06:07:52;101674.88;;;7.95;79.18
59103;BME280;43999;51.660;5.616;2023-04-20T06:10:24;101667.63;;;8.04;77.82
59103;BME280;43999;51.660;5.616;2023-04-20T06:12:54;101672.69;;;8.11;78.60
59103;BME280;43999;51.660;5.616;2023-04-20T06:15:23;101679.41;;;8.18;79.58
59103;BME280;43999;51.660;5.616;2023-04-20T06:17:53;101663.78;;;8.16;78.48
59103;BME280;43999;51.660;5.616;2023-04-20T06:20:20;101685.59;;;8.15;78.33
59103;BME280;43999;51.660;5.616;2023-04-20T06:22:51;101681.13;;;8.19;78.51
59103;BME280;43999;51.660;5.616;2023-04-20T06:25:23;101683.78;;;8.17;78.67
59103;BME280;43999;51.660;5.616;2023-04-20T06:27:51;101681.16;;;8.17;79.20
59103;BME280;43999;51.660;5.616;2023-04-20T06:30:19;101665.59;;;8.14;79.62
59103;BME280;43999;51.660;5.616;2023-04-20T06:33:05;101675.09;;;8.17;79.48
59103;BME280;43999;51.660;5.616;2023-04-20T06:35:38;101654.41;;;8.11;79.03
59103;BME280;43999;51.660;5.616;2023-04-20T06:38:08;101657.66;;;8.17;79.58
59103;BME280;43999;51.660;5.616;2023-04-20T06:40:36;101662.84;;;8.19;79.47
59103;BME280;43999;51.660;5.616;2023-04-20T06:43:03;101659.53;;;8.14;78.73
59103;BME280;43999;51.660;5.616;2023-04-20T06:45:32;101668.19;;;8.14;78.96
59103;BME280;43999;51.660;5.616;2023-04-20T06:48:00;101662.75;;;8.22;78.50
59103;BME280;43999;51.660;5.616;2023-04-20T06:50:28;101668.91;;;8.19;78.45
59103;BME280;43999;51.660;5.616;2023-04-20T06:52:55;101669.00;;;8.16;77.77
59103;BME280;43999;51.660;5.616;2023-04-20T06:55:24;101663.78;;;8.16;77.25
59103;BME280;43999;51.660;5.616;2023-04-20T06:57:53;101658.59;;;8.15;77.57
59103;BME280;43999;51.660;5.616;2023-04-20T07:00:20;101663.16;;;8.08;78.09
59103;BME280;43999;51.660;5.616;2023-04-20T07:02:50;101645.78;;;8.07;77.76
59103;BME280;43999;51.660;5.616;2023-04-20T07:05:18;101663.16;;;8.08;77.76
59103;BME280;43999;51.660;5.616;2023-04-20T07:07:46;101668.56;;;8.02;78.33
59103;BME280;43999;51.660;5.616;2023-04-20T07:10:14;101661.59;;;8.02;78.40
59103;BME280;43999;51.660;5.616;2023-04-20T07:12:43;101687.69;;;8.02;79.20
59103;BME280;43999;51.660;5.616;2023-04-20T07:15:11;101664.19;;;8.02;78.41
59103;BME280;43999;51.660;5.616;2023-04-20T07:17:48;101672.16;;;7.98;78.91
59103;BME280;43999;51.660;5.616;2023-04-20T07:20:16;101668.66;;;7.99;79.71
59103;BME280;43999;51.660;5.616;2023-04-20T07:22:47;101662.69;;;7.95;79.42
59103;BME280;43999;51.660;5.616;2023-04-20T07:25:14;101666.09;;;7.97;79.56
59103;BME280;43999;51.660;5.616;2023-04-20T07:27:43;101659.13;;;7.98;79.28
59103;BME280;43999;51.660;5.616;2023-04-20T07:30:11;101668.66;;;7.99;80.56
59103;BME280;43999;51.660;5.616;2023-04-20T07:32:40;101659.19;;;8.24;79.90
59103;BME280;43999;51.660;5.616;2023-04-20T07:35:09;101644.69;;;8.42;78.88
59103;BME280;43999;51.660;5.616;2023-04-20T07:37:37;101642.69;;;8.52;78.69
59103;BME280;43999;51.660;5.616;2023-04-20T07:40:07;101644.97;;;8.63;77.32
59103;BME280;43999;51.660;5.616;2023-04-20T07:42:37;101642.13;;;8.69;78.25
59103;BME280;43999;51.660;5.616;2023-04-20T07:45:11;101644.69;;;8.71;77.19
59103;BME280;43999;51.660;5.616;2023-04-20T07:47:39;101645.44;;;8.74;77.55
59103;BME280;43999;51.660;5.616;2023-04-20T07:50:07;101655.50;;;8.87;77.88
59103;BME280;43999;51.660;5.616;2023-04-20T07:52:34;101652.03;;;8.86;78.01
59103;BME280;43999;51.660;5.616;2023-04-20T07:55:05;101656.75;;;9.02;77.41
59103;BME280;43999;51.660;5.616;2023-04-20T07:57:35;101647.06;;;9.04;76.47
59103;BME280;43999;51.660;5.616;2023-04-20T08:00:04;101650.47;;;9.06;75.60
59103;BME280;43999;51.660;5.616;2023-04-20T08:02:39;101650.97;;;9.17;76.37
59103;BME280;43999;51.660;5.616;2023-04-20T08:05:08;101651.59;;;9.24;75.52
59103;BME280;43999;51.660;5.616;2023-04-20T08:07:38;101643.81;;;9.22;74.65
59103;BME280;43999;51.660;5.616;2023-04-20T08:10:08;101650.88;;;9.20;75.71
59103;BME280;43999;51.660;5.616;2023-04-20T08:12:43;101645.75;;;9.17;76.29
59103;BME280;43999;51.660;5.616;2023-04-20T08:15:18;101651.13;;;9.12;76.50
59103;BME280;43999;51.660;5.616;2023-04-20T08:17:45;101645.09;;;9.10;76.99
59103;BME280;43999;51.660;5.616;2023-04-20T08:20:12;101645.84;;;9.14;77.15
59103;BME280;43999;51.660;5.616;2023-04-20T08:22:41;101643.28;;;9.12;77.61
59103;BME280;43999;51.660;5.616;2023-04-20T08:25:09;101620.50;;;9.16;77.56
59103;BME280;43999;51.660;5.616;2023-04-20T08:27:45;101639.69;;;9.15;77.38
59103;BME280;43999;51.660;5.616;2023-04-20T08:30:12;101628.13;;;9.22;78.47
59103;BME280;43999;51.660;5.616;2023-04-20T08:32:40;101632.97;;;9.57;78.40
59103;BME280;43999;51.660;5.616;2023-04-20T08:35:07;101635.94;;;9.71;76.93
59103;BME280;43999;51.660;5.616;2023-04-20T08:37:35;101629.78;;;9.72;76.08
59103;BME280;43999;51.660;5.616;2023-04-20T08:40:06;101623.72;;;9.72;75.67
59103;BME280;43999;51.660;5.616;2023-04-20T08:42:35;101631.97;;;9.61;74.74
59103;BME280;43999;51.660;5.616;2023-04-20T08:45:03;101633.88;;;9.56;76.22
59103;BME280;43999;51.660;5.616;2023-04-20T08:47:32;101632.38;;;9.50;76.23
59103;BME280;43999;51.660;5.616;2023-04-20T08:50:04;101631.72;;;9.43;77.09
59103;BME280;43999;51.660;5.616;2023-04-20T08:52:32;101631.59;;;9.46;77.19
59103;BME280;43999;51.660;5.616;2023-04-20T08:55:04;101626.97;;;9.55;76.80
59103;BME280;43999;51.660;5.616;2023-04-20T08:57:34;101631.22;;;9.57;77.16
59103;BME280;43999;51.660;5.616;2023-04-20T09:00:03;101614.78;;;9.54;76.50
59103;BME280;43999;51.660;5.616;2023-04-20T09:02:53;101616.56;;;9.53;77.15
59103;BME280;43999;51.660;5.616;2023-04-20T09:05:27;101606.88;;;9.55;77.95
59103;BME280;43999;51.660;5.616;2023-04-20T09:08:13;101617.06;;;9.63;76.49
59103;BME280;43999;51.660;5.616;2023-04-20T09:10:44;101616.44;;;9.56;76.17
59103;BME280;43999;51.660;5.616;2023-04-20T09:13:21;101619.84;;;9.58;77.94
59103;BME280;43999;51.660;5.616;2023-04-20T09:15:53;101617.44;;;9.52;78.13
59103;BME280;43999;51.660;5.616;2023-04-20T09:18:21;101619.28;;;9.50;78.23
59103;BME280;43999;51.660;5.616;2023-04-20T09:20:51;101618.81;;;9.39;78.85
59103;BME280;43999;51.660;5.616;2023-04-20T09:23:20;101621.31;;;9.42;79.42
59103;BME280;43999;51.660;5.616;2023-04-20T09:25:51;101608.28;;;9.40;78.89
59103;BME280;43999;51.660;5.616;2023-04-20T09:28:19;101610.28;;;9.33;79.68
59103;BME280;43999;51.660;5.616;2023-04-20T09:30:48;101601.97;;;9.22;80.29
59103;BME280;43999;51.660;5.616;2023-04-20T09:33:18;101613.44;;;9.18;81.04
59103;BME280;43999;51.660;5.616;2023-04-20T09:35:45;101613.09;;;9.04;81.63
59103;BME280;43999;51.660;5.616;2023-04-20T09:38:16;101614.13;;;8.98;82.72
59103;BME280;43999;51.660;5.616;2023-04-20T09:40:52;101610.28;;;8.85;82.59
59103;BME280;43999;51.660;5.616;2023-04-20T09:43:25;101608.69;;;8.79;83.13
59103;BME280;43999;51.660;5.616;2023-04-20T09:45:55;101607.34;;;8.67;84.03
59103;BME280;43999;51.660;5.616;2023-04-20T09:48:23;101605.81;;;8.61;85.52
59103;BME280;43999;51.660;5.616;2023-04-20T09:50:50;101601.63;;;8.56;85.36
59103;BME280;43999;51.660;5.616;2023-04-20T09:53:20;101600.53;;;8.63;85.34
59103;BME280;43999;51.660;5.616;2023-04-20T09:55:49;101610.06;;;8.64;85.34
59103;BME280;43999;51.660;5.616;2023-04-20T09:58:23;101604.88;;;8.63;86.53
59103;BME280;43999;51.660;5.616;2023-04-20T10:00:51;101607.25;;;8.70;85.56
59103;BME280;43999;51.660;5.616;2023-04-20T10:03:19;101600.13;;;8.75;86.21
59103;BME280;43999;51.660;5.616;2023-04-20T10:05:49;101593.13;;;8.76;85.94
59103;BME280;43999;51.660;5.616;2023-04-20T10:08:19;101602.84;;;8.72;85.39
59103;BME280;43999;51.660;5.616;2023-04-20T10:10:49;101591.78;;;8.64;86.37
59103;BME280;43999;51.660;5.616;2023-04-20T10:13:18;101593.81;;;8.56;86.33
59103;BME280;43999;51.660;5.616;2023-04-20T10:15:51;101605.19;;;8.53;86.50
59103;BME280;43999;51.660;5.616;2023-04-20T10:18:22;101590.59;;;8.48;87.67
59103;BME280;43999;51.660;5.616;2023-04-20T10:21:04;101595.69;;;8.52;88.47
59103;BME280;43999;51.660;5.616;2023-04-20T10:23:48;101590.69;;;8.71;87.24
59103;BME280;43999;51.660;5.616;2023-04-20T10:26:18;101588.28;;;8.90;87.03
59103;BME280;43999;51.660;5.616;2023-04-20T10:28:52;101586.72;;;9.10;86.11
59103;BME280;43999;51.660;5.616;2023-04-20T10:31:40;101579.28;;;9.23;85.20
59103;BME280;43999;51.660;5.616;2023-04-20T10:34:08;101576.34;;;9.32;82.76
59103;BME280;43999;51.660;5.616;2023-04-20T10:36:37;101570.44;;;9.27;82.73
59103;BME280;43999;51.660;5.616;2023-04-20T10:39:18;101578.00;;;9.35;81.71
59103;BME280;43999;51.660;5.616;2023-04-20T10:41:55;101570.03;;;9.38;81.75
59103;BME280;43999;51.660;5.616;2023-04-20T10:44:28;101562.28;;;9.58;80.90
59103;BME280;43999;51.660;5.616;2023-04-20T10:46:56;101564.25;;;9.97;79.49
59103;BME280;43999;51.660;5.616;2023-04-20T10:49:28;101562.09;;;10.72;76.78
59103;BME280;43999;51.660;5.616;2023-04-20T10:51:59;101555.22;;;11.29;75.22
59103;BME280;43999;51.660;5.616;2023-04-20T10:54:37;101551.69;;;11.50;71.56
59103;BME280;43999;51.660;5.616;2023-04-20T10:57:15;101548.97;;;11.70;70.92
59103;BME280;43999;51.660;5.616;2023-04-20T10:59:42;101548.94;;;12.26;68.82
59103;BME280;43999;51.660;5.616;2023-04-20T11:02:11;101541.81;;;12.80;66.76
59103;BME280;43999;51.660;5.616;2023-04-20T11:04:41;101541.13;;;13.26;63.94
59103;BME280;43999;51.660;5.616;2023-04-20T11:07:10;101529.41;;;13.16;61.78
59103;BME280;43999;51.660;5.616;2023-04-20T11:09:53;101523.28;;;12.66;61.63
59103;BME280;43999;51.660;5.616;2023-04-20T11:12:37;101527.50;;;12.16;62.47
59103;BME280;43999;51.660;5.616;2023-04-20T11:15:12;101543.81;;;11.86;64.76
59103;BME280;43999;51.660;5.616;2023-04-20T11:17:39;101529.75;;;11.70;65.07
59103;BME280;43999;51.660;5.616;2023-04-20T11:20:13;101534.84;;;11.54;65.05
59103;BME280;43999;51.660;5.616;2023-04-20T11:22:56;101532.50;;;11.28;66.18
59103;BME280;43999;51.660;5.616;2023-04-20T11:25:25;101524.78;;;11.06;67.00
59103;BME280;43999;51.660;5.616;2023-04-20T11:28:07;101514.03;;;10.92;68.73
59103;BME280;43999;51.660;5.616;2023-04-20T11:30:42;101522.00;;;10.70;68.23
59103;BME280;43999;51.660;5.616;2023-04-20T11:33:10;101508.31;;;10.43;69.39
59103;BME280;43999;51.660;5.616;2023-04-20T11:35:44;101511.50;;;10.29;70.92
59103;BME280;43999;51.660;5.616;2023-04-20T11:38:11;101518.81;;;10.20;70.79
59103;BME280;43999;51.660;5.616;2023-04-20T11:40:43;101513.16;;;10.09;72.09
59103;BME280;43999;51.660;5.616;2023-04-20T11:43:11;101508.38;;;9.98;72.30
59103;BME280;43999;51.660;5.616;2023-04-20T11:45:40;101511.22;;;9.92;73.42
59103;BME280;43999;51.660;5.616;2023-04-20T11:48:08;101511.28;;;9.91;75.54
59103;BME280;43999;51.660;5.616;2023-04-20T11:50:37;101514.53;;;9.75;78.86
59103;BME280;43999;51.660;5.616;2023-04-20T11:53:08;101508.72;;;9.45;82.31
59103;BME280;43999;51.660;5.616;2023-04-20T11:55:38;101514.03;;;9.20;84.44
59103;BME280;43999;51.660;5.616;2023-04-20T11:58:07;101514.81;;;8.98;86.53
59103;BME280;43999;51.660;5.616;2023-04-20T12:00:36;101509.19;;;8.85;88.15
59103;BME280;43999;51.660;5.616;2023-04-20T12:03:05;101504.34;;;8.74;87.67
59103;BME280;43999;51.660;5.616;2023-04-20T12:05:33;101507.06;;;8.71;88.56
59103;BME280;43999;51.660;5.616;2023-04-20T12:08:09;101502.72;;;8.70;87.79
59103;BME280;43999;51.660;5.616;2023-04-20T12:10:37;101502.84;;;8.67;87.48
59103;BME280;43999;51.660;5.616;2023-04-20T12:13:06;101520.19;;;8.70;90.46
59103;BME280;43999;51.660;5.616;2023-04-20T12:15:40;101522.28;;;8.60;93.50
59103;BME280;43999;51.660;5.616;2023-04-20T12:18:09;101535.81;;;8.46;97.32
59103;BME280;43999;51.660;5.616;2023-04-20T12:20:37;101518.22;;;8.24;99.50
59103;BME280;43999;51.660;5.616;2023-04-20T12:23:06;101510.69;;;8.15;100.00
59103;BME280;43999;51.660;5.616;2023-04-20T12:25:37;101499.94;;;8.24;100.00
59103;BME280;43999;51.660;5.616;2023-04-20T12:28:07;101497.47;;;8.47;100.00
59103;BME280;43999;51.660;5.616;2023-04-20T12:30:36;101499.28;;;8.70;100.00
59103;BME280;43999;51.660;5.616;2023-04-20T12:33:04;101499.00;;;9.01;100.00
59103;BME280;43999;51.660;5.616;2023-04-20T12:35:37;101491.16;;;9.48;100.00
59103;BME280;43999;51.660;5.616;2023-04-20T12:38:05;101496.44;;;9.91;100.00
59103;BME280;43999;51.660;5.616;2023-04-20T12:40:34;101486.88;;;10.33;99.65
59103;BME280;43999;51.660;5.616;2023-04-20T12:43:05;101487.75;;;10.54;98.35
59103;BME280;43999;51.660;5.616;2023-04-20T12:45:35;101491.13;;;10.56;95.19
59103;BME280;43999;51.660;5.616;2023-04-20T12:48:03;101488.72;;;10.51;96.92
59103;BME280;43999;51.660;5.616;2023-04-20T12:50:33;101486.09;;;10.51;93.00
59103;BME280;43999;51.660;5.616;2023-04-20T12:53:02;101474.53;;;10.36;90.29
59103;BME280;43999;51.660;5.616;2023-04-20T12:55:30;101480.00;;;10.30;89.63
59103;BME280;43999;51.660;5.616;2023-04-20T12:57:59;101486.41;;;10.23;90.75
59103;BME280;43999;51.660;5.616;2023-04-20T13:00:29;101489.88;;;10.23;91.34
59103;BME280;43999;51.660;5.616;2023-04-20T13:02:57;101480.16;;;10.48;91.95
59103;BME280;43999;51.660;5.616;2023-04-20T13:05:25;101473.56;;;10.58;89.00
59103;BME280;43999;51.660;5.616;2023-04-20T13:07:54;101470.94;;;10.58;84.36
59103;BME280;43999;51.660;5.616;2023-04-20T13:10:27;101470.56;;;10.47;85.89
59103;BME280;43999;51.660;5.616;2023-04-20T13:12:54;101481.25;;;10.42;83.79
59103;BME280;43999;51.660;5.616;2023-04-20T13:15:23;101479.78;;;10.36;83.08